createdAt,value
2019-03-30T00:02:53.019Z,60.63
2019-03-30T00:07:57.418Z,55.43
2019-03-30T00:13:01.582Z,49.33
2019-03-30T00:18:10.116Z,45.08
2019-03-30T00:23:16.536Z,43.50
2019-03-30T00:28:19.975Z,43.00
2019-03-30T00:33:24.220Z,42.27
2019-03-30T00:38:27.664Z,43.83
2019-03-30T00:43:31.379Z,42.85
2019-03-30T00:48:37.543Z,42.08
2019-03-30T00:53:42.166Z,42.65
2019-03-30T00:58:49.132Z,46.37
2019-03-30T01:03:52.571Z,45.20
2019-03-30T01:08:56.133Z,39.23
2019-03-30T01:13:59.840Z,38.38
2019-03-30T01:19:10.957Z,36.23
2019-03-30T01:24:14.438Z,40.58
2019-03-30T01:29:17.871Z,39.40
2019-03-30T01:34:23.367Z,36.33
2019-03-30T01:39:26.803Z,36.08
2019-03-30T01:44:30.492Z,35.13
2019-03-30T01:49:33.944Z,33.50
2019-03-30T01:54:37.363Z,34.67
2019-03-30T01:59:41.018Z,34.48
2019-03-30T02:04:45.421Z,32.55
2019-03-30T02:09:48.837Z,37.55
2019-03-30T02:14:52.587Z,37.95
2019-03-30T02:19:56.037Z,31.65
2019-03-30T02:24:59.425Z,35.03
2019-03-30T02:30:02.757Z,32.85
2019-03-30T02:35:06.910Z,32.50
2019-03-30T02:40:10.665Z,31.85
2019-03-30T02:45:14.579Z,34.00
2019-03-30T02:50:17.984Z,33.65
2019-03-30T02:55:21.366Z,31.23
2019-03-30T03:00:24.738Z,35.00
2019-03-30T03:05:30.358Z,32.30
2019-03-30T03:10:34.486Z,32.35
2019-03-30T03:15:38.775Z,32.42
2019-03-30T03:20:42.197Z,27.87
2019-03-30T03:25:45.921Z,28.38
2019-03-30T03:30:49.929Z,35.13
2019-03-30T03:35:54.812Z,32.03
2019-03-30T03:40:58.878Z,30.40
2019-03-30T03:46:02.351Z,30.35
2019-03-30T03:51:05.782Z,28.50
2019-03-30T03:56:09.489Z,30.35
2019-03-30T04:01:12.841Z,30.70
2019-03-30T04:06:16.304Z,31.75
2019-03-30T04:11:20.584Z,28.90
2019-03-30T04:16:24.040Z,31.80
2019-03-30T04:21:42.899Z,31.87
2019-03-30T04:26:34.019Z,31.42
2019-03-30T04:31:37.764Z,33.42
2019-03-30T04:36:42.413Z,30.95
2019-03-30T04:41:46.045Z,29.67
2019-03-30T04:46:49.511Z,29.85
2019-03-30T04:51:57.815Z,28.23
2019-03-30T04:56:59.309Z,33.92
2019-03-30T05:02:05.962Z,30.43
2019-03-30T05:07:09.406Z,36.55
2019-03-30T05:12:13.236Z,30.25
2019-03-30T05:17:16.778Z,34.33
2019-03-30T05:22:20.143Z,33.08
2019-03-30T05:27:23.594Z,28.70
2019-03-30T05:32:28.764Z,30.82
2019-03-30T05:37:34.378Z,33.33
2019-03-30T05:42:49.472Z,30.50
2019-03-30T05:47:56.025Z,28.67
2019-03-30T05:53:02.265Z,30.68
2019-03-30T05:58:14.275Z,30.97
2019-03-30T06:09:37.290Z,29.70
2019-03-30T06:20:23.278Z,31.82
2019-03-30T06:31:20.993Z,31.37
2019-03-30T06:42:22.838Z,27.10
2019-03-30T06:47:28.431Z,36.40
2019-03-30T06:52:35.197Z,35.43
2019-03-30T06:57:41.497Z,32.53
2019-03-30T07:19:16.707Z,29.70
2019-03-30T07:24:22.473Z,28.95
2019-03-30T07:29:26.534Z,29.77
2019-03-30T07:34:31.289Z,33.45
2019-03-30T07:39:40.774Z,32.75
2019-03-30T07:55:34.316Z,34.18
2019-03-30T08:06:14.262Z,38.30
2019-03-30T08:22:43.559Z,30.60
2019-03-30T08:27:48.088Z,33.20
2019-03-30T08:32:51.584Z,34.67
2019-03-30T08:37:57.503Z,33.20
2019-03-30T08:43:04.708Z,37.28
2019-03-30T08:48:15.810Z,52.70
2019-03-30T08:53:24.157Z,43.52
2019-03-30T08:58:36.488Z,45.53
2019-03-30T09:03:46.643Z,41.75
2019-03-30T09:08:53.220Z,41.18
2019-03-30T09:13:59.988Z,40.33
2019-03-30T09:35:58.283Z,29.50
2019-03-30T09:41:02.336Z,30.70
2019-03-30T09:46:09.572Z,26.50
2019-03-30T09:51:14.714Z,25.02
2019-03-30T09:56:21.778Z,25.08
2019-03-30T10:01:42.488Z,28.67
2019-03-30T10:06:50.959Z,24.82
2019-03-30T10:11:59.102Z,30.85
2019-03-30T10:28:41.059Z,22.35
2019-03-30T10:44:46.291Z,20.40
2019-03-30T10:49:57.807Z,20.05
2019-03-30T10:55:02.588Z,19.45
2019-03-30T11:06:02.257Z,22.00
2019-03-30T11:11:15.125Z,21.40
2019-03-30T11:16:19.962Z,20.68
2019-03-30T11:21:24.692Z,20.23
2019-03-30T11:26:29.730Z,18.35
2019-03-30T11:31:46.297Z,17.80
2019-03-30T11:36:50.829Z,16.10
2019-03-30T11:41:56.562Z,16.15
2019-03-30T11:47:03.019Z,17.37
2019-03-30T11:52:17.647Z,17.25
2019-03-30T11:57:29.426Z,17.05
2019-03-30T12:02:41.069Z,17.92
2019-03-30T12:07:46.138Z,16.60
2019-03-30T12:12:54.156Z,16.02
2019-03-30T12:18:03.450Z,15.85
2019-03-30T12:23:11.739Z,14.03
2019-03-30T12:28:37.324Z,14.18
2019-03-30T12:33:54.888Z,15.53
2019-03-30T12:39:10.668Z,14.60
2019-03-30T12:44:15.506Z,13.55
2019-03-30T12:49:21.912Z,15.07
2019-03-30T12:54:43.574Z,13.83
2019-03-30T12:59:59.221Z,14.25
2019-03-30T13:05:12.068Z,14.98
2019-03-30T13:10:17.749Z,16.35
2019-03-30T13:15:21.165Z,17.07
2019-03-30T13:20:25.324Z,17.00
2019-03-30T13:25:29.766Z,18.45
2019-03-30T13:30:36.151Z,18.20
2019-03-30T13:35:40.519Z,18.77
2019-03-30T13:40:48.444Z,20.12
2019-03-30T13:45:53.821Z,22.27
2019-03-30T13:51:03.185Z,26.15
2019-03-30T13:56:17.173Z,25.85
2019-03-30T14:01:26.656Z,25.82
2019-03-30T14:06:34.829Z,22.32
2019-03-30T14:11:41.411Z,23.05
2019-03-30T14:16:46.797Z,24.55
2019-03-30T14:21:50.802Z,25.23
2019-03-30T14:27:01.926Z,23.38
2019-03-30T14:32:12.295Z,24.18
2019-03-30T14:37:16.289Z,26.82
2019-03-30T14:42:21.561Z,26.20
2019-03-30T14:47:38.907Z,32.20
2019-03-30T14:52:47.178Z,31.75
2019-03-30T14:57:58.085Z,34.35
2019-03-30T15:03:03.585Z,38.67
2019-03-30T15:08:08.738Z,42.20
2019-03-30T15:13:22.879Z,43.15
2019-03-30T15:18:37.109Z,41.25
2019-03-30T15:29:33.539Z,42.43
2019-03-30T15:34:37.902Z,44.88
2019-03-30T15:39:44.031Z,44.00
2019-03-30T15:50:54.725Z,46.23
2019-03-30T15:55:58.141Z,47.88
2019-03-30T16:01:02.201Z,45.70
2019-03-30T16:06:09.202Z,49.38
2019-03-30T16:11:14.382Z,53.15
2019-03-30T16:16:19.451Z,50.05
2019-03-30T16:21:25.326Z,52.85
2019-03-30T16:26:41.307Z,49.00
2019-03-30T16:31:36.375Z,52.48
2019-03-30T16:36:40.853Z,47.53
2019-03-30T16:41:44.342Z,53.10
2019-03-30T16:46:47.675Z,53.35
2019-03-30T16:51:52.249Z,54.95
2019-03-30T16:56:58.075Z,59.35
2019-03-30T17:02:01.925Z,62.15
2019-03-30T17:07:08.258Z,57.62
2019-03-30T17:12:11.680Z,56.20
2019-03-30T17:17:16.362Z,59.42
2019-03-30T17:22:20.461Z,65.03
2019-03-30T17:27:23.853Z,65.12
2019-03-30T17:32:29.276Z,64.30
2019-03-30T17:37:33.435Z,66.80
2019-03-30T17:42:39.354Z,70.17
2019-03-30T17:47:47.115Z,81.42
2019-03-30T17:52:50.528Z,81.40
2019-03-30T17:57:55.688Z,76.77
2019-03-30T18:02:58.992Z,75.45
2019-03-30T18:08:02.411Z,74.50
2019-03-30T18:13:06.719Z,80.83
2019-03-30T18:23:54.117Z,81.82
2019-03-30T18:28:57.252Z,78.40
2019-03-30T18:34:02.205Z,79.97
2019-03-30T18:39:09.938Z,87.05
2019-03-30T18:44:11.710Z,94.00
2019-03-30T18:49:23.229Z,104.75
2019-03-30T18:54:28.427Z,90.12
2019-03-30T18:59:33.774Z,88.55
2019-03-30T19:04:38.201Z,108.40
2019-03-30T19:09:41.669Z,142.25
2019-03-30T19:14:45.301Z,106.17
2019-03-30T19:19:50.172Z,178.65
2019-03-30T19:24:54.663Z,145.55
2019-03-30T19:29:59.085Z,151.78
2019-03-30T19:35:02.908Z,149.77
2019-03-30T19:40:06.493Z,126.85
2019-03-30T19:45:10.324Z,129.87
2019-03-30T19:50:14.359Z,125.20
2019-03-30T19:55:17.804Z,126.72
2019-03-30T20:00:21.218Z,129.15
2019-03-30T20:05:24.638Z,132.07
2019-03-30T20:10:30.630Z,127.22
2019-03-30T20:15:34.093Z,119.57
2019-03-30T20:20:37.494Z,135.40
2019-03-30T20:25:40.935Z,134.27
2019-03-30T20:30:44.286Z,135.68
2019-03-30T20:35:47.732Z,133.52
2019-03-30T20:40:53.961Z,131.03
2019-03-30T20:45:59.071Z,131.97
2019-03-30T20:51:02.838Z,131.70
2019-03-30T20:56:06.340Z,150.60
2019-03-30T21:01:11.079Z,139.15
2019-03-30T21:06:14.477Z,140.95
2019-03-30T21:11:19.528Z,142.10
2019-03-30T21:16:22.995Z,139.88
2019-03-30T21:21:28.789Z,148.87
2019-03-30T21:26:32.308Z,144.47
2019-03-30T21:31:35.745Z,153.00
2019-03-30T21:36:40.096Z,154.27
2019-03-30T21:41:44.256Z,150.47
2019-03-30T21:46:47.938Z,186.90
2019-03-30T21:51:51.330Z,181.35
2019-03-30T21:56:58.328Z,177.22
2019-03-30T22:02:01.408Z,170.85
2019-03-30T22:07:04.741Z,150.32
2019-03-30T22:12:08.918Z,159.10
2019-03-30T22:17:14.029Z,154.10
2019-03-30T22:22:17.450Z,156.12
2019-03-30T22:27:25.158Z,147.65
2019-03-30T22:32:28.841Z,148.82
2019-03-30T22:37:33.846Z,157.75
2019-03-30T22:42:37.234Z,151.00
2019-03-30T22:47:41.036Z,157.97
2019-03-30T22:52:44.417Z,157.97
2019-03-30T22:57:47.723Z,156.32
2019-03-30T23:02:51.062Z,163.22
2019-03-30T23:07:55.179Z,156.57
2019-03-30T23:12:59.641Z,155.87
2019-03-30T23:18:03.016Z,149.95
2019-03-30T23:23:08.036Z,155.05
2019-03-30T23:28:11.976Z,155.35
2019-03-30T23:33:16.154Z,149.75
2019-03-30T23:38:19.646Z,153.72
2019-03-30T23:43:23.004Z,155.93
2019-03-30T23:48:26.397Z,162.85
2019-03-30T23:53:29.805Z,154.82
2019-03-30T23:58:33.939Z,152.97
